createdAt,value
2018-11-21T00:01:28.318Z,4.09
2018-11-21T00:03:55.015Z,3.59
2018-11-21T00:06:21.694Z,3.66
2018-11-21T00:08:48.447Z,3.86
2018-11-21T00:11:15.101Z,3.73
2018-11-21T00:13:42.083Z,3.53
2018-11-21T00:16:08.743Z,3.75
2018-11-21T00:18:35.401Z,3.88
2018-11-21T00:21:02.096Z,3.91
2018-11-21T00:23:28.785Z,3.94
2018-11-21T00:25:55.473Z,3.99
2018-11-21T00:28:22.613Z,4.00
2018-11-21T00:30:49.285Z,4.03
2018-11-21T00:33:15.985Z,3.90
2018-11-21T00:35:42.659Z,4.19
2018-11-21T00:38:09.352Z,3.83
2018-11-21T00:40:36.042Z,4.13
2018-11-21T00:43:02.705Z,4.07
2018-11-21T00:45:29.485Z,3.95
2018-11-21T00:47:56.134Z,3.79
2018-11-21T00:50:22.812Z,3.68
2018-11-21T00:52:49.481Z,3.57
2018-11-21T00:55:16.137Z,3.65
2018-11-21T00:57:42.785Z,3.65
2018-11-21T01:00:10.725Z,3.83
2018-11-21T01:02:37.431Z,3.93
2018-11-21T01:05:04.864Z,3.87
2018-11-21T01:07:31.548Z,3.74
2018-11-21T01:09:58.207Z,4.13
2018-11-21T01:12:24.899Z,3.77
2018-11-21T01:14:51.688Z,3.93
2018-11-21T01:17:18.371Z,4.00
2018-11-21T01:19:45.053Z,4.19
2018-11-21T01:22:11.741Z,4.21
2018-11-21T01:24:38.418Z,3.73
2018-11-21T01:27:05.517Z,4.08
2018-11-21T01:29:32.181Z,4.02
2018-11-21T01:31:58.845Z,3.83
2018-11-21T01:34:25.829Z,3.87
2018-11-21T01:36:52.496Z,3.99
2018-11-21T01:39:19.170Z,3.96
2018-11-21T01:41:45.839Z,4.18
2018-11-21T01:44:12.541Z,3.79
2018-11-21T01:46:39.193Z,3.93
2018-11-21T01:49:05.938Z,3.92
2018-11-21T01:51:33.131Z,3.96
2018-11-21T01:53:59.989Z,4.09
2018-11-21T01:56:26.766Z,3.89
2018-11-21T01:58:53.502Z,3.95
2018-11-21T02:01:20.265Z,3.91
2018-11-21T02:03:46.930Z,3.95
2018-11-21T02:06:13.606Z,3.73
2018-11-21T02:08:40.270Z,3.89
2018-11-21T02:11:06.917Z,3.75
2018-11-21T02:13:33.609Z,3.89
2018-11-21T02:16:00.534Z,4.16
2018-11-21T02:18:27.220Z,4.12
2018-11-21T02:20:53.889Z,4.11
2018-11-21T02:23:20.577Z,4.12
2018-11-21T02:25:47.258Z,3.98
2018-11-21T02:28:13.930Z,4.21
2018-11-21T02:30:40.630Z,3.93
2018-11-21T02:33:07.277Z,3.86
2018-11-21T02:35:33.991Z,4.01
2018-11-21T02:38:00.656Z,3.98
2018-11-21T02:40:27.338Z,3.98
2018-11-21T02:42:54.034Z,4.13
2018-11-21T02:45:20.693Z,3.90
2018-11-21T02:47:47.397Z,3.87
2018-11-21T02:50:14.468Z,3.72
2018-11-21T02:52:41.133Z,3.71
2018-11-21T02:55:07.862Z,3.72
2018-11-21T02:57:35.245Z,3.69
2018-11-21T03:00:16.175Z,3.62
2018-11-21T03:02:42.841Z,3.59
2018-11-21T03:05:09.497Z,3.56
2018-11-21T03:07:36.405Z,3.54
2018-11-21T03:10:03.791Z,3.72
2018-11-21T03:12:31.209Z,3.72
2018-11-21T03:14:57.899Z,3.53
2018-11-21T03:17:24.695Z,3.22
2018-11-21T03:19:51.407Z,3.52
2018-11-21T03:22:18.074Z,3.45
2018-11-21T03:24:44.865Z,3.69
2018-11-21T03:27:11.568Z,3.67
2018-11-21T03:29:38.247Z,3.56
2018-11-21T03:32:04.898Z,3.72
2018-11-21T03:34:31.584Z,3.43
2018-11-21T03:36:58.237Z,3.50
2018-11-21T03:39:25.457Z,3.34
2018-11-21T03:41:52.129Z,3.55
2018-11-21T03:44:18.914Z,3.46
2018-11-21T03:46:46.798Z,3.21
2018-11-21T03:49:13.701Z,3.08
2018-11-21T03:51:40.404Z,3.30
2018-11-21T03:54:07.330Z,3.17
2018-11-21T03:56:34.660Z,3.42
2018-11-21T03:59:01.355Z,3.40
2018-11-21T04:01:28.267Z,3.47
2018-11-21T04:03:55.083Z,3.51
2018-11-21T04:06:21.776Z,3.37
2018-11-21T04:08:48.462Z,3.31
2018-11-21T04:11:15.134Z,3.25
2018-11-21T04:13:41.790Z,3.13
2018-11-21T04:16:08.554Z,3.55
2018-11-21T04:18:35.338Z,3.72
2018-11-21T04:21:02.044Z,3.55
2018-11-21T04:23:28.740Z,3.49
2018-11-21T04:25:55.500Z,3.40
2018-11-21T04:28:22.238Z,3.77
2018-11-21T04:30:48.911Z,3.24
2018-11-21T04:33:15.573Z,3.05
2018-11-21T04:35:42.232Z,3.44
2018-11-21T04:38:08.923Z,3.55
2018-11-21T04:40:35.601Z,3.34
2018-11-21T04:43:02.296Z,3.47
2018-11-21T04:45:29.027Z,3.71
2018-11-21T04:47:56.031Z,3.67
2018-11-21T04:50:22.356Z,3.26
2018-11-21T04:52:49.021Z,3.48
2018-11-21T04:55:15.714Z,3.22
2018-11-21T04:57:42.398Z,3.51
2018-11-21T05:00:09.814Z,3.34
2018-11-21T05:02:36.519Z,3.43
2018-11-21T05:05:03.777Z,3.75
2018-11-21T05:07:30.480Z,3.57
2018-11-21T05:09:57.168Z,3.63
2018-11-21T05:12:23.878Z,3.40
2018-11-21T05:14:50.603Z,3.59
2018-11-21T05:17:17.362Z,3.49
2018-11-21T05:19:44.035Z,3.38
2018-11-21T05:22:10.701Z,3.30
2018-11-21T05:24:37.373Z,3.34
2018-11-21T05:27:04.383Z,2.94
2018-11-21T05:29:31.058Z,2.68
2018-11-21T05:31:57.703Z,3.08
2018-11-21T05:34:24.369Z,3.48
2018-11-21T05:36:51.058Z,3.20
2018-11-21T05:39:17.750Z,3.20
2018-11-21T05:41:44.576Z,2.98
2018-11-21T05:44:11.274Z,2.81
2018-11-21T05:46:37.952Z,2.93
2018-11-21T05:49:05.017Z,3.27
2018-11-21T05:51:31.690Z,3.28
2018-11-21T05:53:58.384Z,3.49
2018-11-21T05:56:25.093Z,3.34
2018-11-21T05:58:51.785Z,3.05
2018-11-21T06:01:18.441Z,3.02
2018-11-21T06:03:45.096Z,3.25
2018-11-21T06:06:12.072Z,3.23
2018-11-21T06:08:38.814Z,3.09
2018-11-21T06:11:05.473Z,3.10
2018-11-21T06:13:32.273Z,3.56
2018-11-21T06:15:58.965Z,3.59
2018-11-21T06:18:25.635Z,3.31
2018-11-21T06:20:52.466Z,3.50
2018-11-21T06:23:19.391Z,2.94
2018-11-21T06:25:46.079Z,2.93
2018-11-21T06:28:12.745Z,2.78
2018-11-21T06:30:39.457Z,3.27
2018-11-21T06:33:06.149Z,3.00
2018-11-21T06:35:32.922Z,3.07
2018-11-21T06:37:59.618Z,2.64
2018-11-21T06:40:26.621Z,2.72
2018-11-21T06:42:54.693Z,3.08
2018-11-21T06:45:22.641Z,3.08
2018-11-21T06:47:49.309Z,3.41
2018-11-21T06:50:16.122Z,3.37
2018-11-21T06:52:42.796Z,3.27
2018-11-21T06:55:09.474Z,2.94
2018-11-21T06:57:36.130Z,3.10
2018-11-21T07:00:02.822Z,2.91
2018-11-21T07:02:29.513Z,2.81
2018-11-21T07:04:56.471Z,3.38
2018-11-21T07:07:23.130Z,3.32
2018-11-21T07:09:49.801Z,3.23
2018-11-21T07:12:16.478Z,3.09
2018-11-21T07:14:43.180Z,3.29
2018-11-21T07:17:09.897Z,3.34
2018-11-21T07:19:36.584Z,3.56
2018-11-21T07:22:08.498Z,3.32
2018-11-21T07:24:46.331Z,3.11
2018-11-21T07:27:16.187Z,3.40
2018-11-21T07:29:42.883Z,3.28
2018-11-21T07:32:09.575Z,3.35
2018-11-21T07:34:36.220Z,3.78
2018-11-21T07:37:02.899Z,3.44
2018-11-21T07:39:29.597Z,3.12
2018-11-21T07:41:56.258Z,3.30
2018-11-21T07:44:22.924Z,3.06
2018-11-21T07:46:49.700Z,2.85
2018-11-21T07:49:16.382Z,2.89
2018-11-21T07:51:43.058Z,2.94
2018-11-21T07:54:09.711Z,2.90
2018-11-21T07:57:19.203Z,2.86
2018-11-21T08:00:53.250Z,3.31
2018-11-21T08:03:21.197Z,2.75
2018-11-21T08:05:53.070Z,2.84
2018-11-21T08:08:29.522Z,2.41
2018-11-21T08:11:14.818Z,2.77
2018-11-21T08:14:03.929Z,3.02
2018-11-21T08:16:56.617Z,3.51
2018-11-21T08:19:37.397Z,3.34
2018-11-21T08:22:24.268Z,3.33
2018-11-21T08:25:08.957Z,3.38
2018-11-21T08:27:47.798Z,3.24
2018-11-21T08:30:14.489Z,3.34
2018-11-21T08:32:41.209Z,3.29
2018-11-21T08:35:07.894Z,3.55
2018-11-21T08:37:34.562Z,3.67
2018-11-21T08:40:01.246Z,3.53
2018-11-21T08:42:28.630Z,3.58
2018-11-21T08:44:55.307Z,3.13
2018-11-21T08:47:21.979Z,3.01
2018-11-21T08:49:48.683Z,3.12
2018-11-21T08:52:15.982Z,3.23
2018-11-21T08:54:42.982Z,3.06
2018-11-21T08:57:09.742Z,3.02
2018-11-21T08:59:36.533Z,2.93
2018-11-21T09:02:03.925Z,2.53
2018-11-21T09:04:30.683Z,3.33
2018-11-21T09:06:57.586Z,3.17
2018-11-21T09:09:24.268Z,3.40
2018-11-21T09:11:50.918Z,3.28
2018-11-21T09:14:17.587Z,3.36
2018-11-21T09:16:45.460Z,3.02
2018-11-21T09:19:12.133Z,3.08
2018-11-21T09:21:38.834Z,2.93
2018-11-21T09:24:05.692Z,3.30
2018-11-21T09:26:32.360Z,3.31
2018-11-21T09:28:59.046Z,3.00
2018-11-21T09:31:25.726Z,3.46
2018-11-21T09:33:52.481Z,3.30
2018-11-21T09:36:19.232Z,3.49
2018-11-21T09:38:45.878Z,3.07
2018-11-21T09:41:12.559Z,3.75
2018-11-21T09:43:39.595Z,3.81
2018-11-21T09:46:06.254Z,3.98
2018-11-21T09:48:33.150Z,3.40
2018-11-21T09:50:59.837Z,3.67
2018-11-21T09:53:26.760Z,3.83
2018-11-21T09:55:53.457Z,4.20
2018-11-21T09:58:20.099Z,3.95
2018-11-21T10:01:23.932Z,3.63
2018-11-21T10:03:50.939Z,3.68
2018-11-21T10:06:20.198Z,4.21
2018-11-21T10:08:51.654Z,4.14
2018-11-21T10:11:19.113Z,3.76
2018-11-21T10:13:46.078Z,4.08
2018-11-21T10:16:12.745Z,3.87
2018-11-21T10:18:40.963Z,3.80
2018-11-21T10:21:09.791Z,3.83
2018-11-21T10:23:36.549Z,3.71
2018-11-21T10:26:03.283Z,3.54
2018-11-21T10:28:30.067Z,3.69
2018-11-21T10:30:57.129Z,4.06
2018-11-21T10:33:23.797Z,3.78
2018-11-21T10:35:50.489Z,3.85
2018-11-21T10:38:17.544Z,3.58
2018-11-21T10:40:44.237Z,3.52
2018-11-21T10:43:10.959Z,3.78
2018-11-21T10:45:37.621Z,4.04
2018-11-21T10:48:04.419Z,4.12
2018-11-21T10:50:31.141Z,4.22
2018-11-21T10:52:57.994Z,3.94
2018-11-21T10:55:24.681Z,3.90
2018-11-21T10:57:51.853Z,4.33
2018-11-21T11:00:36.886Z,3.70
2018-11-21T11:03:09.094Z,3.73
2018-11-21T11:05:54.456Z,3.75
2018-11-21T11:08:40.781Z,3.58
2018-11-21T11:11:29.868Z,3.43
2018-11-21T11:14:15.029Z,3.51
2018-11-21T11:17:00.207Z,3.68
2018-11-21T11:19:45.450Z,3.68
2018-11-21T11:22:43.844Z,3.38
2018-11-21T11:25:33.134Z,3.56
2018-11-21T11:28:28.937Z,3.89
2018-11-21T11:31:15.061Z,3.93
2018-11-21T11:33:55.689Z,3.85
2018-11-21T11:36:58.020Z,3.78
2018-11-21T11:39:42.840Z,3.87
2018-11-21T11:42:28.734Z,3.63
2018-11-21T11:45:21.726Z,3.66
2018-11-21T11:48:07.279Z,4.22
2018-11-21T11:50:57.244Z,3.63
2018-11-21T11:53:47.091Z,4.01
2018-11-21T11:56:48.865Z,3.70
2018-11-21T11:59:54.227Z,3.49
2018-11-21T12:02:53.451Z,3.49
2018-11-21T12:05:46.479Z,3.49
2018-11-21T12:08:36.359Z,3.63
2018-11-21T12:11:35.151Z,3.78
2018-11-21T12:14:20.738Z,3.90
2018-11-21T12:17:16.626Z,3.55
2018-11-21T12:23:23.340Z,3.68
2018-11-21T12:26:25.679Z,3.98
2018-11-21T12:29:30.115Z,3.89
2018-11-21T12:32:15.264Z,3.83
2018-11-21T12:35:00.590Z,3.83
2018-11-21T12:37:46.890Z,4.27
2018-11-21T12:40:32.166Z,4.08
2018-11-21T12:43:13.551Z,4.36
2018-11-21T12:46:05.332Z,4.71
2018-11-21T12:48:51.621Z,4.88
2018-11-21T12:51:36.603Z,4.76
2018-11-21T12:54:12.299Z,5.02
2018-11-21T12:57:11.082Z,4.03
2018-11-21T13:00:12.507Z,4.09
2018-11-21T13:02:45.374Z,6.12
2018-11-21T13:05:30.573Z,6.21
2018-11-21T13:08:16.169Z,6.68
2018-11-21T13:11:01.146Z,6.94
2018-11-21T13:13:53.653Z,6.65
2018-11-21T13:16:55.530Z,7.28
2018-11-21T13:19:40.450Z,6.35
2018-11-21T13:22:25.493Z,7.04
2018-11-21T13:25:10.856Z,6.00
2018-11-21T13:27:59.918Z,5.81
2018-11-21T13:31:01.793Z,6.71
2018-11-21T13:33:51.353Z,6.26
2018-11-21T13:36:36.228Z,6.11
2018-11-21T13:39:28.308Z,6.61
2018-11-21T13:42:19.078Z,5.90
2018-11-21T13:45:14.500Z,5.43
2018-11-21T13:47:58.612Z,6.19
2018-11-21T13:50:43.895Z,5.89
2018-11-21T13:53:28.909Z,6.21
2018-11-21T13:55:55.575Z,5.01
2018-11-21T13:58:22.365Z,4.43
2018-11-21T14:00:49.424Z,4.10
2018-11-21T14:03:16.108Z,4.21
2018-11-21T14:05:42.810Z,3.86
2018-11-21T14:08:09.478Z,3.56
2018-11-21T14:10:36.200Z,3.20
2018-11-21T14:13:02.855Z,3.26
2018-11-21T14:15:29.562Z,2.94
2018-11-21T14:17:56.173Z,2.88
2018-11-21T14:20:23.106Z,2.85
2018-11-21T14:22:49.758Z,2.77
2018-11-21T14:25:16.443Z,2.73
2018-11-21T14:27:43.372Z,2.71
2018-11-21T14:30:11.610Z,2.76
2018-11-21T14:32:38.580Z,2.60
2018-11-21T14:35:07.998Z,2.63
2018-11-21T14:37:34.752Z,2.64
2018-11-21T14:40:01.438Z,2.71
2018-11-21T14:42:28.370Z,2.59
2018-11-21T14:44:55.041Z,2.56
2018-11-21T14:47:21.718Z,2.41
2018-11-21T14:49:52.616Z,2.46
2018-11-21T14:52:19.286Z,2.41
2018-11-21T14:54:45.955Z,2.39
2018-11-21T14:57:12.617Z,2.40
2018-11-21T14:59:39.262Z,2.47
2018-11-21T15:02:05.946Z,2.37
2018-11-21T15:04:32.599Z,2.41
2018-11-21T15:06:59.304Z,2.40
2018-11-21T15:09:26.062Z,2.36
2018-11-21T15:11:52.757Z,2.43
2018-11-21T15:14:19.438Z,2.37
2018-11-21T15:16:46.093Z,2.42
2018-11-21T15:19:12.734Z,2.38
2018-11-21T15:21:39.794Z,2.31
2018-11-21T15:24:06.503Z,2.35
2018-11-21T15:26:33.264Z,2.35
2018-11-21T15:29:00.738Z,2.33
2018-11-21T15:31:27.387Z,2.28
2018-11-21T15:33:54.121Z,2.27
2018-11-21T15:36:20.736Z,2.68
2018-11-21T15:38:47.479Z,2.75
2018-11-21T15:41:14.207Z,3.15
2018-11-21T15:43:40.849Z,3.24
2018-11-21T15:46:08.318Z,3.07
2018-11-21T15:48:35.144Z,2.92
2018-11-21T15:51:01.834Z,2.85
2018-11-21T15:53:28.505Z,3.14
2018-11-21T15:55:55.162Z,3.20
2018-11-21T15:58:21.906Z,3.14
2018-11-21T16:00:48.639Z,3.07
2018-11-21T16:03:15.582Z,2.69
2018-11-21T16:05:42.248Z,2.52
2018-11-21T16:08:08.904Z,2.46
2018-11-21T16:10:37.170Z,2.43
2018-11-21T16:13:04.221Z,2.38
2018-11-21T16:15:35.668Z,2.38
2018-11-21T16:18:00.102Z,2.35
2018-11-21T16:20:26.745Z,2.33
2018-11-21T16:22:53.468Z,2.25
2018-11-21T16:25:21.079Z,2.31
2018-11-21T16:27:47.727Z,2.31
2018-11-21T16:30:22.379Z,2.28
2018-11-21T16:32:49.036Z,2.33
2018-11-21T16:35:15.930Z,2.30
2018-11-21T16:37:42.981Z,2.26
2018-11-21T16:40:15.353Z,2.24
2018-11-21T16:42:42.138Z,2.20
2018-11-21T16:45:10.471Z,2.20
2018-11-21T16:47:37.186Z,2.25
2018-11-21T16:50:06.967Z,2.23
2018-11-21T16:52:33.629Z,2.23
2018-11-21T16:55:00.339Z,2.28
2018-11-21T16:57:27.873Z,2.19
2018-11-21T16:59:55.825Z,2.25
2018-11-21T17:02:21.495Z,2.26
2018-11-21T17:04:48.466Z,2.21
2018-11-21T17:07:17.908Z,2.19
2018-11-21T17:09:45.040Z,2.23
2018-11-21T17:12:12.914Z,2.21
2018-11-21T17:14:39.618Z,2.13
2018-11-21T17:17:06.594Z,2.14
2018-11-21T17:19:33.270Z,2.22
2018-11-21T17:21:59.946Z,2.17
2018-11-21T17:24:26.599Z,2.13
2018-11-21T17:26:53.563Z,2.15
2018-11-21T17:29:20.229Z,2.14
2018-11-21T17:31:47.166Z,2.07
2018-11-21T17:34:13.848Z,2.09
2018-11-21T17:36:40.676Z,2.10
2018-11-21T17:39:09.793Z,2.02
2018-11-21T17:41:36.468Z,2.06
2018-11-21T17:44:03.308Z,2.03
2018-11-21T17:46:29.964Z,2.08
2018-11-21T17:48:56.720Z,2.06
2018-11-21T17:51:26.615Z,2.03
2018-11-21T17:53:50.370Z,2.05
2018-11-21T17:56:17.034Z,2.05
2018-11-21T17:58:43.829Z,1.98
2018-11-21T18:01:10.865Z,1.97
2018-11-21T18:03:38.030Z,1.97
2018-11-21T18:06:04.716Z,1.93
2018-11-21T18:08:31.777Z,1.95
2018-11-21T18:10:58.453Z,1.90
2018-11-21T18:13:25.140Z,1.96
2018-11-21T18:15:51.837Z,1.93
2018-11-21T18:18:18.508Z,1.94
2018-11-21T18:20:45.289Z,1.84
2018-11-21T18:23:11.998Z,1.89
2018-11-21T18:25:40.939Z,1.94
2018-11-21T18:28:07.632Z,1.88
2018-11-21T18:30:34.340Z,2.12
2018-11-21T18:33:01.048Z,2.27
2018-11-21T18:35:27.731Z,2.28
2018-11-21T18:37:54.628Z,2.32
2018-11-21T18:41:15.638Z,2.26
2018-11-21T18:43:42.997Z,2.37
2018-11-21T18:46:09.701Z,2.21
2018-11-21T18:48:36.465Z,2.17
2018-11-21T18:51:03.429Z,2.88
2018-11-21T18:53:30.087Z,3.53
2018-11-21T18:56:02.398Z,3.32
2018-11-21T18:58:44.594Z,3.17
2018-11-21T19:01:11.484Z,2.89
2018-11-21T19:03:38.178Z,3.65
2018-11-21T19:06:04.850Z,3.34
2018-11-21T19:08:31.897Z,2.80
2018-11-21T19:10:58.560Z,2.48
2018-11-21T19:13:26.104Z,2.22
2018-11-21T19:15:53.137Z,2.13
2018-11-21T19:18:19.819Z,2.05
2018-11-21T19:20:46.478Z,1.96
2018-11-21T19:23:13.223Z,1.96
2018-11-21T19:25:39.953Z,1.95
2018-11-21T19:28:06.612Z,1.88
2018-11-21T19:30:33.359Z,1.82
2018-11-21T19:33:00.046Z,1.92
2018-11-21T19:35:26.835Z,1.92
2018-11-21T19:37:53.605Z,1.86
2018-11-21T19:40:20.294Z,1.90
2018-11-21T19:42:47.040Z,1.84
2018-11-21T19:45:15.442Z,1.85
2018-11-21T19:47:42.130Z,1.82
2018-11-21T19:50:12.119Z,1.86
2018-11-21T19:52:39.967Z,1.88
2018-11-21T19:55:08.864Z,1.80
2018-11-21T19:57:35.544Z,1.85
2018-11-21T20:00:02.374Z,1.83
2018-11-21T20:02:29.170Z,1.84
2018-11-21T20:04:55.990Z,1.77
2018-11-21T20:07:22.658Z,1.85
2018-11-21T20:09:49.334Z,1.80
2018-11-21T20:12:16.010Z,2.28
2018-11-21T20:14:42.688Z,2.54
2018-11-21T20:17:09.389Z,2.79
2018-11-21T20:19:36.097Z,2.79
2018-11-21T20:22:02.875Z,2.83
2018-11-21T20:24:29.663Z,2.72
2018-11-21T20:26:56.473Z,3.04
2018-11-21T20:29:23.128Z,2.88
2018-11-21T20:31:49.917Z,2.75
2018-11-21T20:34:16.928Z,2.88
2018-11-21T20:36:43.638Z,2.82
2018-11-21T20:39:11.673Z,2.60
2018-11-21T20:41:39.109Z,2.54
2018-11-21T20:44:05.795Z,2.61
2018-11-21T20:46:32.588Z,2.70
2018-11-21T20:48:59.327Z,2.72
2018-11-21T20:51:25.957Z,2.71
2018-11-21T20:53:52.623Z,2.79
2018-11-21T20:56:19.308Z,2.68
2018-11-21T20:58:46.057Z,2.54
2018-11-21T21:01:12.746Z,2.81
2018-11-21T21:03:39.402Z,2.73
2018-11-21T21:06:06.141Z,2.90
2018-11-21T21:08:32.929Z,2.47
2018-11-21T21:10:59.628Z,2.19
2018-11-21T21:13:26.421Z,2.20
2018-11-21T21:15:53.137Z,2.10
2018-11-21T21:18:19.825Z,2.06
2018-11-21T21:20:46.513Z,1.99
2018-11-21T21:23:13.264Z,1.89
2018-11-21T21:25:39.926Z,1.81
2018-11-21T21:28:06.698Z,1.88
2018-11-21T21:30:33.984Z,1.83
2018-11-21T21:33:00.918Z,1.76
2018-11-21T21:35:28.960Z,1.76
2018-11-21T21:37:55.925Z,1.80
2018-11-21T21:40:22.822Z,1.80
2018-11-21T21:42:49.533Z,1.41
2018-11-21T21:45:18.028Z,1.78
2018-11-21T21:47:44.723Z,1.74
2018-11-21T21:50:12.295Z,1.76
2018-11-21T21:52:39.013Z,1.74
2018-11-21T21:55:06.911Z,1.76
2018-11-21T21:57:33.557Z,1.77
2018-11-21T22:00:00.343Z,1.70
2018-11-21T22:02:27.420Z,1.76
2018-11-21T22:04:54.371Z,1.76
2018-11-21T22:07:21.531Z,1.71
2018-11-21T22:09:48.273Z,1.69
2018-11-21T22:12:14.999Z,1.69
2018-11-21T22:14:41.656Z,1.70
2018-11-21T22:17:08.322Z,1.79
2018-11-21T22:19:35.111Z,1.75
2018-11-21T22:22:01.805Z,1.69
2018-11-21T22:24:28.591Z,1.74
2018-11-21T22:26:55.552Z,1.67
2018-11-21T22:29:22.316Z,1.65
2018-11-21T22:31:48.971Z,1.76
2018-11-21T22:34:15.741Z,1.76
2018-11-21T22:36:42.956Z,1.72
2018-11-21T22:39:11.094Z,1.66
2018-11-21T22:41:37.785Z,1.68
2018-11-21T22:44:04.899Z,1.68
2018-11-21T22:46:31.550Z,1.71
2018-11-21T22:48:58.310Z,1.76
2018-11-21T22:51:25.045Z,1.73
2018-11-21T22:53:51.882Z,1.72
2018-11-21T22:56:18.531Z,1.79
2018-11-21T22:58:45.609Z,1.74
2018-11-21T23:01:12.258Z,1.72
2018-11-21T23:03:38.896Z,1.73
2018-11-21T23:06:05.965Z,1.78
2018-11-21T23:08:32.752Z,1.73
2018-11-21T23:10:59.508Z,1.72
2018-11-21T23:13:26.179Z,1.69
2018-11-21T23:15:52.841Z,1.67
2018-11-21T23:18:19.525Z,1.72
2018-11-21T23:20:46.198Z,1.68
2018-11-21T23:23:12.863Z,1.74
2018-11-21T23:25:39.748Z,1.78
2018-11-21T23:28:06.447Z,1.74
2018-11-21T23:30:33.124Z,1.71
2018-11-21T23:32:59.795Z,1.74
2018-11-21T23:35:26.493Z,1.72
2018-11-21T23:37:53.201Z,1.71
2018-11-21T23:40:19.855Z,1.69
2018-11-21T23:42:48.272Z,1.75
2018-11-21T23:45:15.790Z,1.76
2018-11-21T23:47:42.874Z,1.71
2018-11-21T23:50:11.002Z,1.74
2018-11-21T23:52:37.997Z,1.71
2018-11-21T23:55:07.008Z,1.72
2018-11-21T23:57:33.665Z,1.76
